Time;durP1;ratioP1;P1;durP2;ratioP2;P2;SDS_P1;SDS_P2;PMS_P1;PMS_P2;Temp;Humidity;BMP_temperature;BMP_pressure;BME280_temperature;BME280_humidity;BME280_pressure;Samples;Min_cycle;Max_cycle;Signal;HPM_P1;HPM_P2
2023/04/03 04:32:19;;;;;;;4.80;0.95;;;12.80;60.80;;;;;;4838680;27;20445;-75
2023/04/03 04:34:45;;;;;;;5.75;1.05;;;12.80;60.90;;;;;;4830455;29;20132;-73
2023/04/03 04:37:11;;;;;;;3.55;0.30;;;12.70;61.20;;;;;;4844350;29;20091;-81
2023/04/03 04:39:36;;;;;;;4.13;0.80;;;12.80;61.40;;;;;;4845752;29;20093;-77
2023/04/03 04:42:02;;;;;;;4.72;0.70;;;12.90;61.30;;;;;;4833746;29;20447;-81
2023/04/03 04:44:34;;;;;;;4.97;0.73;;;13.00;61.70;;;;;;4845120;29;20042;-80
2023/04/03 04:47:00;;;;;;;7.28;0.88;;;13.10;61.40;;;;;;4845289;29;20041;-77
2023/04/03 04:49:28;;;;;;;9.23;1.10;;;13.30;61.40;;;;;;4839822;29;20429;-80
2023/04/03 04:51:54;;;;;;;12.82;1.65;;;13.40;61.40;;;;;;4844374;29;20120;-80
2023/04/03 04:54:20;;;;;;;14.30;1.67;;;13.50;61.60;;;;;;4839038;29;20444;-79
2023/04/03 04:56:46;;;;;;;9.85;1.77;;;13.60;61.60;;;;;;4844619;29;20081;-79
2023/04/03 04:59:12;;;;;;;7.47;1.00;;;13.70;61.40;;;;;;4836997;29;20121;-79
2023/04/03 05:01:37;;;;;;;11.15;2.03;;;13.80;61.80;;;;;;4844383;29;20046;-78
2023/04/03 05:04:04;;;;;;;14.27;1.52;;;13.90;61.70;;;;;;4844657;29;20038;-77
2023/04/03 05:06:31;;;;;;;18.45;2.03;;;14.00;61.90;;;;;;4845095;29;20129;-78
2023/04/03 05:08:57;;;;;;;16.17;2.33;;;14.00;62.30;;;;;;4828642;29;20208;-79
2023/04/03 05:11:23;;;;;;;22.05;2.60;;;14.10;63.40;;;;;;4843828;29;20058;-81
2023/04/03 05:13:49;;;;;;;13.68;1.85;;;14.10;63.00;;;;;;4829715;29;20133;-81
2023/04/03 05:16:15;;;;;;;17.10;1.90;;;14.20;63.20;;;;;;4813801;29;20065;-80
2023/04/03 05:18:41;;;;;;;17.02;2.00;;;14.20;63.20;;;;;;4844175;29;20375;-81
2023/04/03 05:21:06;;;;;;;16.48;2.15;;;14.30;63.30;;;;;;4847908;29;20095;-79
2023/04/03 05:23:32;;;;;;;19.45;1.90;;;14.40;63.40;;;;;;4862410;29;20060;-78
2023/04/03 05:25:58;;;;;;;17.10;2.03;;;14.50;64.20;;;;;;4821204;29;20117;-83
2023/04/03 05:28:24;;;;;;;22.70;2.45;;;14.50;63.00;;;;;;4844225;29;20054;-78
2023/04/03 05:30:55;;;;;;;13.95;1.77;;;14.60;58.20;;;;;;4844262;29;20050;-76
2023/04/03 05:33:21;;;;;;;17.90;1.50;;;14.00;53.70;;;;;;4843879;29;20057;-77
2023/04/03 05:35:46;;;;;;;16.02;2.20;;;14.10;60.90;;;;;;4828446;29;20053;-80
2023/04/03 05:38:12;;;;;;;24.52;2.75;;;14.30;61.20;;;;;;4844418;29;20379;-78
2023/04/03 05:40:38;;;;;;;23.35;2.70;;;14.40;61.10;;;;;;4842443;29;20050;-80
2023/04/03 05:43:04;;;;;;;28.30;3.28;;;14.50;61.20;;;;;;4839980;29;20140;-75
2023/04/03 05:45:30;;;;;;;21.05;3.33;;;14.60;61.30;;;;;;4838223;29;20461;-78
2023/04/03 05:47:56;;;;;;;20.35;2.75;;;14.70;61.50;;;;;;4836135;29;20126;-79
2023/04/03 05:50:21;;;;;;;25.48;3.20;;;14.80;61.50;;;;;;4844551;29;20033;-78
2023/04/03 05:52:50;;;;;;;21.42;2.30;;;14.90;61.60;;;;;;4840686;29;20069;-80
2023/04/03 05:55:16;;;;;;;32.38;2.97;;;14.90;61.80;;;;;;4813068;29;20132;-81
2023/04/03 05:57:41;;;;;;;23.95;2.58;;;15.00;61.10;;;;;;4849543;29;20050;-76
2023/04/03 06:00:12;;;;;;;18.60;2.78;;;15.10;60.80;;;;;;4825313;29;20421;-77
2023/04/03 06:02:38;;;;;;;24.05;2.55;;;15.10;60.60;;;;;;4809666;29;20065;-76
2023/04/03 06:05:04;;;;;;;24.50;2.60;;;15.10;60.50;;;;;;4826200;29;20053;-79
2023/04/03 06:07:30;;;;;;;24.75;3.35;;;15.20;60.40;;;;;;4839950;29;20057;-78
2023/04/03 06:09:57;;;;;;;21.90;3.15;;;15.30;60.40;;;;;;4843668;29;20136;-79
2023/04/03 06:12:23;;;;;;;26.00;3.50;;;15.30;60.50;;;;;;4858510;29;20054;-73
2023/04/03 06:14:49;;;;;;;27.70;2.67;;;15.40;59.40;;;;;;4844138;29;20446;-78
2023/04/03 06:17:16;;;;;;;25.30;3.10;;;15.30;57.60;;;;;;4838577;29;20061;-76
2023/04/03 06:19:42;;;;;;;16.92;2.92;;;15.40;56.00;;;;;;4843729;29;20060;-77
2023/04/03 06:22:08;;;;;;;17.83;2.35;;;15.30;55.80;;;;;;4843866;29;20369;-78
2023/04/03 06:24:36;;;;;;;8.70;2.25;;;15.30;55.90;;;;;;4843372;29;20477;-77
2023/04/03 06:27:02;;;;;;;18.38;2.17;;;15.20;56.00;;;;;;4844124;29;20046;-76
2023/04/03 06:29:28;;;;;;;14.38;2.10;;;15.20;56.20;;;;;;4827950;29;20061;-78
2023/04/03 06:31:54;;;;;;;9.98;2.08;;;15.20;56.40;;;;;;4842366;29;20068;-77
2023/04/03 06:34:20;;;;;;;11.48;1.83;;;15.10;56.50;;;;;;4843969;29;20065;-76
2023/04/03 06:36:46;;;;;;;13.00;1.75;;;15.00;56.70;;;;;;4829106;29;20395;-78
2023/04/03 06:39:15;;;;;;;8.07;1.42;;;15.00;56.80;;;;;;4831375;29;20050;-78
2023/04/03 06:41:41;;;;;;;8.23;1.55;;;14.90;56.70;;;;;;4828918;29;20050;-77
2023/04/03 06:44:10;;;;;;;7.05;1.15;;;14.90;56.70;;;;;;4841423;29;20049;-77
2023/04/03 06:46:38;;;;;;;11.00;2.25;;;14.90;56.70;;;;;;4846955;29;20060;-78
2023/04/03 06:49:07;;;;;;;8.77;1.70;;;14.70;56.70;;;;;;4847092;29;20398;-78
2023/04/03 06:51:33;;;;;;;5.57;1.70;;;14.70;56.90;;;;;;4826083;29;20359;-78
2023/04/03 06:54:00;;;;;;;9.05;1.60;;;14.70;57.10;;;;;;4835247;29;20085;-78
2023/04/03 06:56:26;;;;;;;10.63;1.95;;;14.70;57.30;;;;;;4829748;29;20057;-78
2023/04/03 06:58:57;;;;;;;11.93;1.40;;;14.70;57.30;;;;;;4833265;29;20130;-75
2023/04/03 07:01:26;;;;;;;7.30;1.33;;;14.60;57.00;;;;;;4831927;29;20057;-76
2023/04/03 07:03:52;;;;;;;7.03;1.33;;;14.60;56.90;;;;;;4827544;29;20054;-75
2023/04/03 07:06:18;;;;;;;6.88;1.40;;;14.60;57.30;;;;;;4828426;29;20042;-75
2023/04/03 07:08:45;;;;;;;14.88;1.77;;;14.60;56.70;;;;;;4828401;29;20042;-75
2023/04/03 07:11:12;;;;;;;7.85;1.58;;;14.50;57.50;;;;;;4805587;29;20058;-74
2023/04/03 07:13:38;;;;;;;6.65;1.25;;;14.50;57.00;;;;;;4846932;29;20061;-77
2023/04/03 07:16:05;;;;;;;12.32;1.50;;;14.60;57.10;;;;;;4844027;29;20068;-77
2023/04/03 07:18:32;;;;;;;6.07;1.33;;;14.60;57.30;;;;;;4827776;29;20557;-77
2023/04/03 07:20:58;;;;;;;8.88;1.80;;;14.70;57.50;;;;;;4834558;29;20042;-76
2023/04/03 07:23:24;;;;;;;16.73;2.08;;;14.80;57.50;;;;;;4837938;29;20059;-76
2023/04/03 07:25:51;;;;;;;10.30;1.70;;;14.90;57.90;;;;;;4844970;29;20114;-75
2023/04/03 07:28:19;;;;;;;9.38;1.20;;;14.90;57.80;;;;;;4847085;29;20132;-74
2023/04/03 07:30:46;;;;;;;7.72;1.80;;;15.00;57.90;;;;;;4842812;29;20046;-76
2023/04/03 07:33:14;;;;;;;13.82;1.50;;;15.00;57.90;;;;;;4841326;29;20062;-76
2023/04/03 07:35:41;;;;;;;9.02;1.63;;;15.00;58.10;;;;;;4846026;29;20061;-77
2023/04/03 07:38:07;;;;;;;11.40;1.77;;;15.10;58.20;;;;;;4846905;29;20104;-78
2023/04/03 07:40:33;;;;;;;22.45;2.80;;;15.10;58.30;;;;;;4829086;29;20093;-78
2023/04/03 07:42:59;;;;;;;11.15;1.70;;;15.10;58.50;;;;;;4815054;29;20057;-76
2023/04/03 07:45:28;;;;;;;14.63;1.98;;;15.10;58.40;;;;;;4846009;29;20424;-75
2023/04/03 07:47:54;;;;;;;8.50;2.15;;;15.20;58.70;;;;;;4845663;29;20058;-78
2023/04/03 07:50:20;;;;;;;8.27;1.73;;;15.20;58.60;;;;;;4845984;29;20120;-76
2023/04/03 07:52:46;;;;;;;7.13;1.17;;;15.20;58.60;;;;;;4846512;29;20042;-77
2023/04/03 07:55:12;;;;;;;7.75;1.58;;;15.30;58.50;;;;;;4830079;29;20363;-76
2023/04/03 07:57:38;;;;;;;8.23;1.65;;;15.30;58.50;;;;;;4845990;29;20114;-75
2023/04/03 08:00:04;;;;;;;6.28;1.10;;;15.30;58.40;;;;;;4830560;29;20495;-76
2023/04/03 08:02:31;;;;;;;10.75;1.35;;;15.20;58.40;;;;;;4860197;29;20121;-75
2023/04/03 08:04:58;;;;;;;7.78;1.58;;;15.20;58.40;;;;;;4844821;29;20906;-79
2023/04/03 08:07:25;;;;;;;11.30;1.38;;;15.20;58.90;;;;;;4817442;29;20120;-77
2023/04/03 08:09:53;;;;;;;11.80;1.90;;;15.20;59.50;;;;;;4829634;29;20057;-80
2023/04/03 08:12:19;;;;;;;11.38;1.50;;;15.10;60.70;;;;;;4845959;29;20411;-76
2023/04/03 08:14:45;;;;;;;5.82;1.20;;;15.20;60.90;;;;;;4837403;29;20046;-79
2023/04/03 08:17:13;;;;;;;11.57;1.77;;;15.20;61.50;;;;;;4814240;29;20049;-80
2023/04/03 08:19:39;;;;;;;8.18;1.10;;;15.20;61.90;;;;;;4829398;29;20069;-77
2023/04/03 08:22:06;;;;;;;8.68;0.88;;;15.20;61.10;;;;;;4843909;29;20100;-77
2023/04/03 08:24:34;;;;;;;5.63;0.90;;;15.20;60.90;;;;;;4845659;29;20066;-78
2023/04/03 08:27:00;;;;;;;4.20;0.80;;;15.20;61.10;;;;;;4845301;29;20050;-77
2023/04/03 08:29:27;;;;;;;4.63;0.95;;;15.20;61.50;;;;;;4843824;29;20053;-77
2023/04/03 08:31:53;;;;;;;6.03;0.93;;;15.10;61.70;;;;;;4832733;29;20057;-77
2023/04/03 08:34:19;;;;;;;6.38;1.40;;;15.10;62.00;;;;;;4847098;29;20184;-78
2023/04/03 08:36:50;;;;;;;8.40;1.40;;;15.10;62.00;;;;;;4844567;29;20450;-78
2023/04/03 08:39:32;;;;;;;;;;;15.10;62.50;;;;;;4806763;29;20061;-80
2023/04/03 08:42:11;;;;;;;3.28;1.40;;;15.10;62.40;;;;;;4838826;29;19935;-79
2023/04/03 08:45:01;;;;;;;2.92;0.70;;;15.10;62.50;;;;;;4852988;29;20361;-79
2023/04/03 08:48:05;;;;;;;6.55;1.20;;;15.20;62.90;;;;;;4859975;29;20375;-79
2023/04/03 08:50:49;;;;;;;6.32;0.80;;;15.30;62.60;;;;;;4841399;29;20383;-76
2023/04/03 08:53:22;;;;;;;6.18;0.82;;;15.30;62.40;;;;;;4828967;29;20054;-80
2023/04/03 08:55:57;;;;;;;3.97;1.27;;;15.40;62.20;;;;;;4845522;29;20054;-79
2023/04/03 08:58:29;;;;;;;4.65;0.88;;;15.40;62.10;;;;;;4813384;29;20467;-78
2023/04/03 09:01:19;;;;;;;6.75;1.77;;;15.50;62.40;;;;;;4829208;29;20105;-79
2023/04/03 09:03:45;;;;;;;4.75;0.98;;;15.50;61.70;;;;;;4845123;29;20102;-77
2023/04/03 09:06:19;;;;;;;3.58;0.80;;;15.60;61.70;;;;;;4845115;29;20393;-78
2023/04/03 09:09:00;;;;;;;6.60;1.08;;;15.60;61.40;;;;;;4829701;29;20057;-79
2023/04/03 09:11:50;;;;;;;5.57;0.60;;;15.60;61.60;;;;;;4817739;29;20066;-76
2023/04/03 09:14:25;;;;;;;1.80;0.50;;;15.60;60.60;;;;;;4844376;29;20042;-77
2023/04/03 09:17:11;;;;;;;6.18;1.08;;;15.50;60.10;;;;;;4843344;29;20375;-77
2023/04/03 09:20:01;;;;;;;4.35;0.80;;;15.50;60.00;;;;;;4840415;29;20199;-79
2023/04/03 09:22:32;;;;;;;2.38;0.70;;;15.50;60.00;;;;;;4844220;29;20053;-78
2023/04/03 09:25:15;;;;;;;2.80;0.60;;;15.40;60.40;;;;;;4844375;29;20042;-77
2023/04/03 09:27:41;;;;;;;3.78;0.60;;;15.40;60.20;;;;;;4844014;29;20038;-72
2023/04/03 09:30:16;;;;;;;2.55;0.70;;;15.40;60.10;;;;;;4825360;29;20148;-79
2023/04/03 09:32:51;;;;;;;3.45;0.85;;;15.40;60.10;;;;;;4825244;29;20395;-75
2023/04/03 09:35:26;;;;;;;2.35;0.63;;;15.40;60.20;;;;;;4842971;29;20087;-77
2023/04/03 09:37:59;;;;;;;2.65;0.70;;;15.30;60.20;;;;;;4843054;29;20037;-76
2023/04/03 09:40:25;;;;;;;2.65;0.52;;;15.30;60.30;;;;;;4847083;29;20066;-78
2023/04/03 09:43:21;;;;;;;2.53;0.75;;;15.30;61.40;;;;;;4842877;29;20058;-77
2023/04/03 09:45:48;;;;;;;2.25;0.63;;;15.30;61.20;;;;;;4825149;29;20042;-77
2023/04/03 09:48:14;;;;;;;3.10;0.40;;;15.30;60.90;;;;;;4826388;29;20050;-79
2023/04/03 09:51:04;;;;;;;3.35;0.70;;;15.30;60.70;;;;;;4831524;29;20042;-79
2023/04/03 09:53:35;;;;;;;1.48;0.40;;;15.30;61.40;;;;;;4844086;29;20447;-79
2023/04/03 09:58:28;;;;;;;1.23;0.35;;;15.30;61.00;;;;;;5133877;27;20812;-74
2023/04/03 10:00:59;;;;;;;2.67;0.80;;;15.40;61.10;;;;;;5087448;28;20370;-79
2023/04/03 10:03:36;;;;;;;3.75;0.70;;;15.30;61.20;;;;;;5064241;28;20109;-79
2023/04/03 10:06:27;;;;;;;2.53;0.43;;;15.30;60.90;;;;;;5070215;28;20036;-80
2023/04/03 10:09:04;;;;;;;7.28;0.80;;;15.30;61.60;;;;;;5072109;28;20178;-79
2023/04/03 10:11:31;;;;;;;1.30;0.50;;;15.30;61.20;;;;;;5072318;28;20056;-77
2023/04/03 10:14:02;;;;;;;5.25;0.70;;;15.20;61.00;;;;;;5057361;28;20186;-77
2023/04/03 10:16:44;;;;;;;3.22;0.40;;;15.20;60.90;;;;;;5085166;28;20414;-76
2023/04/03 10:19:30;;;;;;;1.08;0.50;;;15.20;61.80;;;;;;5056819;28;20041;-77
2023/04/03 10:22:02;;;;;;;4.15;0.70;;;15.20;62.00;;;;;;5083941;28;20520;-78
2023/04/03 10:25:02;;;;;;;2.10;0.50;;;15.30;62.10;;;;;;5054791;28;20045;-77
2023/04/03 10:27:40;;;;;;;4.28;0.63;;;15.30;61.30;;;;;;5032523;28;20530;-77
2023/04/03 10:30:35;;;;;;;6.45;0.70;;;15.30;59.10;;;;;;5054216;28;20181;-76
2023/04/03 10:33:29;;;;;;;3.00;0.55;;;15.20;58.00;;;;;;5059328;28;20143;-78
2023/04/03 10:36:12;;;;;;;3.17;0.40;;;15.20;57.70;;;;;;5086677;28;20041;-79
2023/04/03 10:39:05;;;;;;;5.43;0.85;;;15.10;57.90;;;;;;5087838;28;20110;-77
2023/04/03 10:41:53;;;;;;;7.68;1.05;;;15.10;57.90;;;;;;5075878;28;20044;-78
2023/04/03 10:44:44;;;;;;;5.82;0.88;;;15.10;54.60;;;;;;5086153;28;20120;-78
2023/04/03 10:47:24;;;;;;;2.47;0.50;;;15.00;49.00;;;;;;5061427;28;20045;-79
2023/04/03 10:49:50;;;;;;;1.95;0.40;;;14.90;44.40;;;;;;5054096;28;20524;-78
2023/04/03 10:52:37;;;;;;;1.95;0.40;;;14.70;42.20;;;;;;5071559;28;20044;-78
2023/04/03 10:55:24;;;;;;;2.40;0.35;;;14.50;41.50;;;;;;5058036;28;20467;-77
2023/04/03 10:57:51;;;;;;;2.05;0.32;;;14.30;41.10;;;;;;5086607;28;20052;-79
2023/04/03 11:00:22;;;;;;;1.60;0.30;;;14.10;41.40;;;;;;5056737;28;20051;-81
2023/04/03 11:02:58;;;;;;;1.10;0.40;;;14.00;41.30;;;;;;5046599;28;20485;-79
2023/04/03 11:05:44;;;;;;;2.35;0.43;;;13.90;41.30;;;;;;5088431;28;20040;-78
2023/04/03 11:08:26;;;;;;;5.32;0.80;;;13.80;43.00;;;;;;5047754;28;20075;-78
2023/04/03 11:11:05;;;;;;;3.45;0.70;;;13.70;44.40;;;;;;5057501;28;20059;-80
2023/04/03 11:13:40;;;;;;;8.32;0.77;;;13.80;45.40;;;;;;5057943;28;20509;-79
2023/04/03 11:16:06;;;;;;;5.32;0.60;;;13.80;46.50;;;;;;5042202;28;20482;-80
2023/04/03 11:18:49;;;;;;;2.85;0.68;;;13.90;47.40;;;;;;5039992;28;20140;-79
2023/04/03 11:21:34;;;;;;;7.72;0.88;;;13.90;48.40;;;;;;5057141;28;20071;-79
2023/04/03 11:24:04;;;;;;;3.35;0.60;;;14.00;48.90;;;;;;5040270;28;20041;-79
2023/04/03 11:26:37;;;;;;;5.35;0.50;;;14.00;49.20;;;;;;5043572;28;20040;-80
2023/04/03 11:29:12;;;;;;;4.93;0.57;;;14.00;49.60;;;;;;5039553;28;20463;-78
2023/04/03 11:32:06;;;;;;;4.82;0.57;;;14.10;50.10;;;;;;5023754;28;20045;-78
2023/04/03 11:34:40;;;;;;;4.55;0.40;;;14.10;50.40;;;;;;5022997;28;20045;-78
2023/04/03 11:37:26;;;;;;;3.65;0.30;;;14.10;50.50;;;;;;5034528;28;20374;-78
2023/04/03 11:40:00;;;;;;;3.05;0.45;;;14.10;50.90;;;;;;5042110;28;20045;-78
2023/04/03 11:42:48;;;;;;;4.38;1.23;;;14.10;51.10;;;;;;5042173;28;20037;-80
2023/04/03 11:45:27;;;;;;;3.65;0.68;;;14.20;51.60;;;;;;5023000;28;20037;-78
2023/04/03 11:47:58;;;;;;;2.63;0.55;;;14.20;51.80;;;;;;5036974;28;20041;-78
2023/04/03 11:50:47;;;;;;;3.38;0.52;;;14.20;51.90;;;;;;5023073;28;20044;-78
2023/04/03 11:53:12;;;;;;;2.40;0.40;;;14.20;52.20;;;;;;5039022;28;20045;-79
2023/04/03 11:55:55;;;;;;;2.38;0.73;;;14.20;52.20;;;;;;5026856;28;20048;-81
2023/04/03 11:58:31;;;;;;;3.40;0.50;;;14.20;52.60;;;;;;5023698;28;20262;-78
2023/04/03 12:01:03;;;;;;;3.22;0.50;;;14.20;52.60;;;;;;5023121;28;20421;-78
2023/04/03 12:03:32;;;;;;;3.03;0.50;;;14.20;52.80;;;;;;5022626;28;20041;-79
2023/04/03 12:06:18;;;;;;;2.97;0.45;;;14.20;53.00;;;;;;5055934;28;20037;-78
2023/04/03 12:08:52;;;;;;;3.88;0.45;;;14.20;53.20;;;;;;5023483;28;20037;-78
2023/04/03 12:11:32;;;;;;;1.95;0.55;;;14.20;53.30;;;;;;5056429;28;20076;-80
2023/04/03 12:13:58;;;;;;;2.03;0.47;;;14.20;53.40;;;;;;5028011;28;20077;-78
2023/04/03 12:16:30;;;;;;;2.10;0.30;;;14.20;53.60;;;;;;5035717;28;20062;-80
2023/04/03 12:19:03;;;;;;;1.85;0.30;;;14.20;53.70;;;;;;5035994;28;20041;-79
2023/04/03 12:21:35;;;;;;;1.40;0.40;;;14.20;53.80;;;;;;5009739;28;20045;-80
2023/04/03 12:24:07;;;;;;;1.55;0.20;;;14.20;54.00;;;;;;5039305;28;20037;-79
2023/04/03 12:27:03;;;;;;;3.25;0.40;;;14.20;54.10;;;;;;5038973;28;20098;-79
2023/04/03 12:29:32;;;;;;;1.52;0.43;;;14.20;54.30;;;;;;5041893;28;20052;-79
2023/04/03 12:32:29;;;;;;;2.35;0.43;;;14.20;54.40;;;;;;5011094;28;20067;-80
2023/04/03 12:35:05;;;;;;;2.13;0.40;;;14.20;54.60;;;;;;5018676;28;20459;-80
2023/04/03 12:37:42;;;;;;;1.02;0.20;;;14.10;54.60;;;;;;5018765;28;20037;-79
2023/04/03 12:40:31;;;;;;;1.55;0.40;;;14.10;54.70;;;;;;5037427;28;20463;-80
2023/04/03 12:43:26;;;;;;;0.88;0.20;;;14.10;54.90;;;;;;5034977;28;20348;-80
2023/04/03 12:46:01;;;;;;;3.67;0.55;;;14.10;55.00;;;;;;5019205;28;20124;-78
2023/04/03 12:48:30;;;;;;;5.65;0.52;;;14.10;54.50;;;;;;5035588;28;20495;-78
2023/04/03 12:50:58;;;;;;;5.72;0.88;;;14.10;53.80;;;;;;5035894;28;20095;-78
2023/04/03 12:53:27;;;;;;;3.25;0.80;;;14.10;52.50;;;;;;5049402;28;20060;-77
2023/04/03 12:55:57;;;;;;;4.60;0.77;;;14.10;51.70;;;;;;5037142;28;20045;-75
2023/04/03 12:58:28;;;;;;;2.47;1.00;;;14.10;50.70;;;;;;5058399;28;20127;-76
2023/04/03 13:01:11;;;;;;;1.17;0.50;;;14.20;47.80;;;;;;5065961;28;20041;-75
2023/04/03 13:03:42;;;;;;;2.28;0.47;;;14.10;47.40;;;;;;5055739;28;20049;-78
2023/04/03 13:06:18;;;;;;;6.85;1.20;;;14.10;46.30;;;;;;5038370;28;20049;-78
2023/04/03 13:08:59;;;;;;;3.80;0.80;;;14.10;45.30;;;;;;5055876;28;20044;-78
2023/04/03 13:11:33;;;;;;;5.22;0.45;;;14.00;45.00;;;;;;5055869;28;20131;-76
2023/04/03 13:14:16;;;;;;;6.93;1.15;;;14.00;44.20;;;;;;5057951;28;20048;-78
2023/04/03 13:16:52;;;;;;;6.60;1.00;;;13.90;42.70;;;;;;5055123;28;20044;-73
2023/04/03 13:19:18;;;;;;;4.70;1.05;;;13.90;42.90;;;;;;5055430;28;20052;-79
2023/04/03 13:21:45;;;;;;;4.97;0.60;;;13.80;43.40;;;;;;5020990;28;20036;-78
2023/04/03 13:24:14;;;;;;;6.22;0.93;;;13.80;43.90;;;;;;5059510;28;20033;-77
2023/04/03 13:26:58;;;;;;;6.38;0.68;;;13.80;44.10;;;;;;5075036;28;20109;-78
2023/04/03 13:30:18;;;;;;;5.68;0.93;;;13.80;43.80;;;;;;5057708;28;20058;-79
2023/04/03 13:32:46;;;;;;;12.32;1.52;;;13.90;44.00;;;;;;5000003;28;20051;-79
2023/04/03 13:36:08;;;;;;;13.55;2.00;;;13.80;45.10;;;;;;5044605;28;20045;-77
2023/04/03 13:39:17;;;;;;;10.63;1.85;;;13.80;47.90;;;;;;4935690;28;20054;-78
2023/04/03 14:01:51;;;;;;;5.75;1.10;;;13.90;49.80;;;;;;4917993;29;20155;-80
2023/04/03 14:05:01;;;;;;;9.52;1.08;;;13.90;49.60;;;;;;4918375;29;20076;-79
2023/04/03 14:07:30;;;;;;;3.72;1.00;;;14.00;49.30;;;;;;4974162;28;20053;-78
2023/04/03 14:09:57;;;;;;;6.70;0.95;;;14.00;48.30;;;;;;4975978;28;20055;-77
2023/04/03 14:17:55;;;;;;;5.07;0.60;;;13.90;49.30;;;;;;4805323;29;20054;-83
2023/04/03 14:33:19;;;;;;;3.47;0.55;;;13.90;51.50;;;;;;4823080;29;20049;-82
2023/04/03 14:35:45;;;;;;;2.88;0.80;;;13.90;51.70;;;;;;4941026;28;20435;-75
2023/04/03 14:38:20;;;;;;;4.65;0.60;;;13.90;51.50;;;;;;4973790;28;20058;-75
2023/04/03 14:40:46;;;;;;;5.15;0.50;;;13.90;51.40;;;;;;5021638;28;20092;-74
2023/04/03 14:43:12;;;;;;;4.25;0.50;;;13.90;51.60;;;;;;5055095;28;20080;-78
2023/04/03 14:45:39;;;;;;;15.52;0.88;;;13.90;51.70;;;;;;5044500;28;20048;-76
2023/04/03 14:48:16;;;;;;;11.82;1.02;;;13.90;51.70;;;;;;5076037;28;20458;-74
2023/04/03 14:50:43;;;;;;;4.25;1.05;;;13.90;51.70;;;;;;5057792;28;20056;-74
2023/04/03 14:53:12;;;;;;;4.07;0.85;;;14.00;49.20;;;;;;5040529;28;20082;-74
2023/04/03 14:55:38;;;;;;;2.17;0.63;;;14.00;47.30;;;;;;5057405;28;20532;-75
2023/04/03 14:58:04;;;;;;;2.25;0.65;;;14.00;45.40;;;;;;5057878;28;20063;-76
2023/04/03 15:00:30;;;;;;;10.88;1.95;;;14.00;44.90;;;;;;5076087;28;20053;-76
2023/04/03 15:02:55;;;;;;;10.18;1.10;;;14.10;45.10;;;;;;5077805;28;20048;-75
2023/04/03 15:05:21;;;;;;;3.15;1.02;;;14.00;45.30;;;;;;5046586;28;20060;-74
2023/04/03 15:07:52;;;;;;;2.50;1.00;;;14.00;46.20;;;;;;5040194;28;20448;-75
2023/04/03 15:10:21;;;;;;;2.38;0.52;;;13.90;46.70;;;;;;5057640;28;20128;-75
2023/04/03 15:12:48;;;;;;;5.32;1.05;;;13.90;47.20;;;;;;5040872;28;20120;-75
2023/04/03 15:15:15;;;;;;;7.63;1.65;;;13.90;47.80;;;;;;5057462;28;20404;-73
2023/04/03 15:17:45;;;;;;;5.07;2.08;;;13.90;49.50;;;;;;5056862;28;20048;-75
2023/04/03 15:20:14;;;;;;;7.13;1.65;;;14.00;53.10;;;;;;5057652;28;20136;-76
2023/04/03 15:22:40;;;;;;;4.65;1.52;;;14.00;53.10;;;;;;5057269;28;20114;-78
2023/04/03 15:25:06;;;;;;;3.03;1.00;;;14.00;52.30;;;;;;5057316;28;20045;-75
2023/04/03 15:27:32;;;;;;;5.57;1.55;;;14.00;51.40;;;;;;5057241;28;20455;-75
2023/04/03 15:29:58;;;;;;;3.58;0.90;;;14.10;52.20;;;;;;5060170;28;20045;-77
2023/04/03 15:32:24;;;;;;;11.07;1.83;;;14.10;52.20;;;;;;5063405;28;20466;-74
2023/04/03 15:34:50;;;;;;;6.25;1.50;;;14.10;52.50;;;;;;5057505;28;20080;-80
2023/04/03 15:37:16;;;;;;;12.02;2.70;;;14.10;53.30;;;;;;5064411;28;20048;-77
2023/04/03 15:39:41;;;;;;;11.48;2.10;;;14.20;54.30;;;;;;5073357;28;20328;-80
2023/04/03 15:42:07;;;;;;;9.75;1.52;;;14.20;57.20;;;;;;5077212;28;20450;-80
2023/04/03 15:44:36;;;;;;;13.32;2.00;;;14.30;57.80;;;;;;5077327;28;20068;-80
2023/04/03 15:47:02;;;;;;;13.85;2.20;;;14.30;59.80;;;;;;5077340;28;20379;-78
2023/04/03 15:49:29;;;;;;;12.77;2.35;;;14.40;60.90;;;;;;5061067;28;20045;-82
2023/04/03 15:51:55;;;;;;;15.20;2.83;;;14.40;61.50;;;;;;5048462;28;20376;-80
2023/04/03 15:54:25;;;;;;;13.30;3.15;;;14.50;62.10;;;;;;5056938;28;20075;-80
2023/04/03 15:56:51;;;;;;;28.20;3.83;;;14.50;63.40;;;;;;5022800;28;20043;-75
2023/04/03 15:59:17;;;;;;;38.15;4.53;;;14.60;64.50;;;;;;5056594;28;20056;-81
2023/04/03 16:01:43;;;;;;;23.38;3.55;;;14.70;64.80;;;;;;5056610;28;20041;-77
2023/04/03 16:04:10;;;;;;;29.70;4.00;;;14.70;64.30;;;;;;5022474;28;20459;-78
2023/04/03 16:06:37;;;;;;;23.02;3.50;;;14.70;66.40;;;;;;5056448;28;20431;-78
2023/04/03 16:09:04;;;;;;;21.30;3.25;;;14.80;68.10;;;;;;5056650;28;20051;-77
2023/04/03 16:11:30;;;;;;;28.83;3.90;;;14.80;68.70;;;;;;5047000;28;20044;-78
2023/04/03 16:13:56;;;;;;;28.15;4.18;;;14.80;69.00;;;;;;5059362;28;20060;-79
2023/04/03 16:16:23;;;;;;;30.45;4.20;;;14.90;68.90;;;;;;5076107;28;20044;-80
2023/04/03 16:18:49;;;;;;;30.92;4.03;;;14.90;68.60;;;;;;5076766;28;20451;-81
2023/04/03 16:21:16;;;;;;;24.35;4.18;;;14.80;68.30;;;;;;5055338;28;20088;-77
2023/04/03 16:23:43;;;;;;;26.52;3.08;;;14.80;68.20;;;;;;5038870;28;20055;-79
2023/04/03 16:26:09;;;;;;;27.02;3.90;;;14.80;68.00;;;;;;5056465;28;20049;-77
2023/04/03 16:28:35;;;;;;;29.25;4.25;;;14.80;67.60;;;;;;5056093;28;20478;-80
2023/04/03 16:31:02;;;;;;;34.95;3.88;;;14.80;67.00;;;;;;5056021;28;20055;-79
2023/04/03 16:33:28;;;;;;;39.42;4.50;;;14.80;66.60;;;;;;5039078;28;20045;-80
2023/04/03 16:35:56;;;;;;;34.42;4.20;;;14.80;66.30;;;;;;5022344;28;20131;-82
2023/04/03 16:38:23;;;;;;;33.45;4.38;;;14.80;66.30;;;;;;5055480;28;20103;-79
2023/04/03 16:40:49;;;;;;;29.88;4.72;;;14.70;66.20;;;;;;5043776;28;20045;-80
2023/04/03 16:43:16;;;;;;;33.95;4.10;;;14.70;66.20;;;;;;5072389;28;20422;-77
2023/04/03 16:45:42;;;;;;;33.10;4.20;;;14.70;66.20;;;;;;5075211;28;20101;-81
2023/04/03 16:48:08;;;;;;;30.25;4.30;;;14.70;66.20;;;;;;5068920;28;20063;-73
2023/04/03 16:50:34;;;;;;;35.50;4.57;;;14.80;66.70;;;;;;5075528;28;20417;-74
2023/04/03 16:53:00;;;;;;;36.45;4.07;;;14.80;65.80;;;;;;5058123;28;20044;-74
2023/04/03 16:55:25;;;;;;;40.28;5.22;;;14.80;65.40;;;;;;5058467;28;20051;-75
2023/04/03 16:57:51;;;;;;;29.48;3.70;;;14.80;65.10;;;;;;5053221;28;20121;-76
2023/04/03 17:00:17;;;;;;;41.85;5.57;;;14.80;64.90;;;;;;5055605;28;20154;-77
2023/04/03 17:02:43;;;;;;;46.15;5.65;;;14.80;64.50;;;;;;5055385;28;20059;-79
2023/04/03 17:05:08;;;;;;;55.05;5.30;;;14.80;64.10;;;;;;5055587;28;20037;-73
2023/04/03 17:07:34;;;;;;;45.92;5.13;;;14.80;64.10;;;;;;5044026;28;20048;-75
2023/04/03 19:32:23;;;;;;;7.72;1.52;;;14.40;53.60;;;;;;4865279;29;20045;-82
2023/04/03 19:34:49;;;;;;;2.35;1.10;;;14.30;52.00;;;;;;4882079;29;20484;-79
2023/04/03 19:37:16;;;;;;;10.85;1.45;;;14.20;51.10;;;;;;4882387;29;20084;-73
2023/04/03 19:39:42;;;;;;;6.65;1.33;;;14.20;50.80;;;;;;4883612;29;20052;-73
2023/04/03 19:42:07;;;;;;;6.43;1.33;;;14.10;50.50;;;;;;4892254;29;20044;-72
2023/04/03 19:44:34;;;;;;;5.72;0.98;;;14.10;50.30;;;;;;4883105;29;20356;-72
2023/04/03 19:47:01;;;;;;;4.70;1.30;;;14.10;49.90;;;;;;4883701;29;20208;-72
2023/04/03 19:49:28;;;;;;;3.55;0.82;;;14.10;49.40;;;;;;4883286;29;20160;-73
2023/04/03 19:51:53;;;;;;;2.33;0.93;;;14.00;49.10;;;;;;4883348;29;20441;-71
2023/04/03 19:54:21;;;;;;;4.65;1.05;;;14.00;48.80;;;;;;4883458;29;20045;-72
2023/04/03 19:56:46;;;;;;;0.98;0.68;;;14.00;48.70;;;;;;4882987;29;20352;-71
2023/04/03 19:59:12;;;;;;;4.70;1.02;;;13.90;48.60;;;;;;4883282;29;20045;-72
2023/04/03 20:01:39;;;;;;;3.45;1.30;;;13.80;48.50;;;;;;4883083;29;20507;-72
2023/04/03 20:04:05;;;;;;;2.88;0.98;;;13.80;48.40;;;;;;4883337;29;20100;-73
2023/04/03 20:06:30;;;;;;;2.45;0.70;;;13.80;48.40;;;;;;4883313;29;20076;-71
2023/04/03 20:08:57;;;;;;;3.50;1.00;;;13.70;48.20;;;;;;4882010;29;20441;-76
2023/04/03 20:11:23;;;;;;;2.33;0.98;;;13.70;48.20;;;;;;4883172;29;20136;-73
2023/04/03 20:13:53;;;;;;;2.03;0.60;;;13.60;48.00;;;;;;4883054;29;20056;-77
2023/04/03 20:16:21;;;;;;;2.03;1.00;;;13.60;47.80;;;;;;4882744;29;20057;-76
2023/04/03 20:18:48;;;;;;;1.95;0.95;;;13.60;47.90;;;;;;4882136;29;20056;-74
2023/04/03 20:21:14;;;;;;;5.03;1.00;;;13.60;48.00;;;;;;4875815;29;20053;-73
2023/04/03 20:23:39;;;;;;;5.97;1.10;;;13.60;48.50;;;;;;4881758;29;20053;-76
2023/04/03 20:26:07;;;;;;;4.70;0.75;;;13.60;49.20;;;;;;4880128;29;20050;-76
2023/04/03 20:28:33;;;;;;;3.35;1.00;;;13.60;49.70;;;;;;4874268;29;20457;-76
2023/04/03 20:31:00;;;;;;;4.13;0.90;;;13.60;50.10;;;;;;4874122;29;20048;-72
2023/04/03 20:33:27;;;;;;;4.75;0.80;;;13.60;50.90;;;;;;4874356;29;20165;-72
2023/04/03 20:35:56;;;;;;;10.85;1.08;;;13.60;51.40;;;;;;4874576;29;20049;-73
2023/04/03 20:38:22;;;;;;;6.47;0.77;;;13.70;51.70;;;;;;4872257;29;20061;-71